Time;durP1;ratioP1;P1;durP2;ratioP2;P2;SDS_P1;SDS_P2;PMS_P1;PMS_P2;Temp;Humidity;BMP_temperature;BMP_pressure;BME280_temperature;BME280_humidity;BME280_pressure;Samples;Min_cycle;Max_cycle;Signal;HPM_P1;HPM_P2
2021/05/28 00:01:54;;;;;;;5.53;5.03;;;12.30;1.00;;;;;;5030224;28;20026;-77
2021/05/28 00:04:19;;;;;;;6.60;4.85;;;12.20;1.00;;;;;;5014328;28;20026;-78
2021/05/28 00:06:45;;;;;;;5.40;5.00;;;12.20;1.00;;;;;;5009135;28;20483;-77
2021/05/28 00:09:10;;;;;;;5.90;5.28;;;12.10;1.00;;;;;;5004768;28;20487;-78
2021/05/28 00:11:36;;;;;;;6.03;5.53;;;12.10;1.00;;;;;;5017198;28;20030;-77
2021/05/28 00:14:02;;;;;;;7.38;6.28;;;12.10;1.00;;;;;;5015194;28;20022;-77
2021/05/28 00:16:27;;;;;;;6.25;5.75;;;12.10;1.00;;;;;;5014140;28;20138;-78
2021/05/28 00:18:53;;;;;;;6.15;5.55;;;12.30;1.00;;;;;;5015568;28;20382;-78
2021/05/28 00:21:19;;;;;;;7.50;6.82;;;12.30;1.00;;;;;;5013564;28;20097;-78
2021/05/28 00:23:47;;;;;;;6.50;5.90;;;12.30;1.00;;;;;;5014048;28;20030;-79
2021/05/28 00:26:13;;;;;;;6.30;5.47;;;12.10;1.00;;;;;;5014832;28;20022;-78
2021/05/28 00:28:39;;;;;;;6.95;5.68;;;12.10;1.00;;;;;;5015175;28;20029;-78
2021/05/28 00:31:05;;;;;;;5.82;5.32;;;11.90;1.00;;;;;;5013353;28;20121;-77
2021/05/28 00:33:30;;;;;;;6.80;6.20;;;11.90;1.00;;;;;;5014937;28;20117;-76
2021/05/28 00:35:56;;;;;;;6.03;5.53;;;11.80;1.00;;;;;;5015085;28;20554;-77
2021/05/28 00:38:22;;;;;;;7.75;6.32;;;11.80;1.00;;;;;;5013774;28;20104;-78
2021/05/28 00:40:47;;;;;;;6.68;5.97;;;11.80;1.00;;;;;;5013889;28;20113;-77
2021/05/28 00:43:13;;;;;;;7.63;5.93;;;11.90;1.00;;;;;;5012150;28;20033;-78
2021/05/28 00:45:38;;;;;;;6.63;6.03;;;11.90;1.00;;;;;;5014677;28;20045;-77
2021/05/28 00:48:05;;;;;;;6.85;6.25;;;11.90;1.00;;;;;;5014346;28;20018;-77
2021/05/28 00:50:30;;;;;;;7.32;6.63;;;11.80;1.00;;;;;;5012924;28;20049;-78
2021/05/28 00:52:58;;;;;;;6.75;6.05;;;11.80;1.00;;;;;;5012964;28;20442;-77
2021/05/28 00:55:25;;;;;;;6.68;5.28;;;11.90;1.00;;;;;;5014847;28;20022;-77
2021/05/28 00:57:52;;;;;;;7.45;5.40;;;11.80;1.00;;;;;;5015278;28;20375;-77
2021/05/28 01:00:19;;;;;;;6.07;5.47;;;11.90;1.00;;;;;;5015637;28;20084;-78
2021/05/28 01:02:48;;;;;;;6.88;5.50;;;11.90;1.00;;;;;;5013872;28;20037;-77
2021/05/28 01:05:13;;;;;;;5.72;5.22;;;11.90;1.00;;;;;;5014106;28;20026;-78
2021/05/28 01:07:46;;;;;;;6.05;5.25;;;11.90;1.00;;;;;;5007168;28;20084;-76
2021/05/28 01:10:13;;;;;;;5.82;4.55;;;11.90;1.00;;;;;;5006629;28;20092;-79
2021/05/28 01:12:40;;;;;;;5.93;5.22;;;11.90;1.00;;;;;;5015225;28;20086;-78
2021/05/28 01:15:10;;;;;;;5.57;4.30;;;12.00;1.00;;;;;;5012718;28;20565;-77
2021/05/28 01:17:36;;;;;;;4.30;3.90;;;12.00;1.00;;;;;;5013899;28;20037;-78
2021/05/28 01:20:04;;;;;;;4.68;4.05;;;11.90;1.00;;;;;;5013649;28;20025;-78
2021/05/28 01:22:30;;;;;;;4.10;3.65;;;11.80;1.00;;;;;;5012429;28;20109;-76
2021/05/28 01:24:56;;;;;;;4.60;3.80;;;11.80;1.00;;;;;;5011720;28;20181;-78
2021/05/28 01:27:21;;;;;;;4.13;3.72;;;11.90;1.00;;;;;;5013700;28;20030;-76
2021/05/28 01:29:47;;;;;;;5.20;3.13;;;11.90;1.00;;;;;;5014137;28;20195;-77
2021/05/28 01:32:14;;;;;;;4.90;3.78;;;11.90;1.00;;;;;;5014496;28;20026;-77
2021/05/28 01:34:40;;;;;;;5.45;3.85;;;12.00;1.00;;;;;;5011919;28;20022;-77
2021/05/28 01:37:05;;;;;;;7.57;4.30;;;12.00;1.00;;;;;;5014762;28;20037;-78
2021/05/28 01:39:31;;;;;;;4.57;3.33;;;12.00;1.00;;;;;;5013978;28;20257;-77
2021/05/28 01:41:57;;;;;;;4.68;3.42;;;11.90;1.00;;;;;;5013791;28;20066;-78
2021/05/28 01:44:22;;;;;;;3.20;2.95;;;11.90;1.00;;;;;;5020480;23;20033;-78
2021/05/28 01:46:51;;;;;;;4.57;3.28;;;11.90;1.00;;;;;;5013132;28;20025;-77
2021/05/28 01:49:16;;;;;;;3.70;3.00;;;11.90;1.00;;;;;;5013760;28;20433;-78
2021/05/28 01:51:50;;;;;;;3.85;3.28;;;11.90;1.00;;;;;;5013193;28;20038;-77
2021/05/28 01:54:19;;;;;;;5.35;3.58;;;11.80;1.00;;;;;;5013200;28;20018;-77
2021/05/28 01:56:48;;;;;;;4.70;3.05;;;11.80;1.00;;;;;;5013295;28;20022;-77
2021/05/28 01:59:23;;;;;;;3.63;3.28;;;11.90;1.00;;;;;;5008605;28;20030;-77
2021/05/28 02:01:50;;;;;;;3.92;3.05;;;11.90;1.00;;;;;;4993130;28;20023;-77
2021/05/28 02:04:16;;;;;;;6.43;3.65;;;11.90;1.00;;;;;;4993552;28;20493;-78
2021/05/28 02:06:42;;;;;;;5.60;3.38;;;11.90;1.00;;;;;;4993286;28;20058;-78
2021/05/28 02:09:07;;;;;;;3.70;3.38;;;11.80;1.00;;;;;;5008024;28;20026;-77
2021/05/28 02:11:33;;;;;;;3.55;3.22;;;11.90;1.00;;;;;;4992034;28;20023;-77
2021/05/28 02:14:01;;;;;;;4.63;3.00;;;11.90;1.00;;;;;;4995364;28;20018;-78
2021/05/28 02:16:26;;;;;;;3.70;2.85;;;11.80;1.00;;;;;;4999316;28;20078;-78
2021/05/28 02:18:52;;;;;;;3.40;3.10;;;11.80;1.00;;;;;;4997736;28;20024;-78
2021/05/28 02:21:18;;;;;;;9.88;4.22;;;11.80;1.00;;;;;;4995533;28;20451;-77
2021/05/28 02:23:43;;;;;;;4.60;3.22;;;11.80;1.00;;;;;;4996260;28;20112;-78
2021/05/28 02:26:09;;;;;;;8.18;4.38;;;11.80;1.00;;;;;;4997727;28;20026;-78
2021/05/28 02:28:34;;;;;;;4.00;2.63;;;11.80;1.00;;;;;;4996405;28;20030;-77
2021/05/28 02:31:00;;;;;;;3.50;3.20;;;11.80;1.00;;;;;;4996597;28;20089;-77
2021/05/28 02:33:26;;;;;;;3.78;2.85;;;11.80;1.00;;;;;;4995662;28;20022;-79
2021/05/28 02:35:51;;;;;;;3.05;2.63;;;11.80;1.00;;;;;;4996884;28;20026;-78
2021/05/28 02:38:17;;;;;;;2.95;2.67;;;11.80;1.00;;;;;;4995130;28;20026;-78
2021/05/28 02:40:42;;;;;;;6.22;2.53;;;11.80;1.00;;;;;;4995196;28;20026;-77
2021/05/28 02:43:08;;;;;;;3.03;2.67;;;11.80;1.00;;;;;;4996715;28;20536;-78
2021/05/28 02:45:34;;;;;;;3.28;2.72;;;11.80;1.00;;;;;;4995244;28;20045;-77
2021/05/28 02:48:00;;;;;;;2.65;2.40;;;11.70;1.00;;;;;;4996607;28;20101;-78
2021/05/28 02:50:26;;;;;;;2.80;2.60;;;11.60;1.00;;;;;;4996010;28;20467;-77
2021/05/28 02:52:51;;;;;;;6.85;2.85;;;11.60;1.00;;;;;;4995673;28;20033;-77
2021/05/28 02:55:17;;;;;;;5.45;2.97;;;11.60;1.00;;;;;;4994278;28;20018;-77
2021/05/28 02:57:43;;;;;;;4.63;3.15;;;11.60;1.00;;;;;;4994147;28;20042;-78
2021/05/28 03:00:09;;;;;;;2.97;2.30;;;11.70;1.00;;;;;;4995449;28;20105;-77
2021/05/28 03:02:34;;;;;;;3.88;2.60;;;11.70;1.00;;;;;;4994476;28;20034;-77
2021/05/28 03:05:00;;;;;;;4.32;2.65;;;11.70;1.00;;;;;;4994918;28;20030;-77
2021/05/28 03:07:25;;;;;;;4.90;2.97;;;11.60;1.00;;;;;;4998412;28;20471;-78
2021/05/28 03:09:51;;;;;;;3.75;3.10;;;11.60;1.00;;;;;;5006408;28;20497;-79
2021/05/28 03:12:17;;;;;;;5.45;3.45;;;11.60;1.00;;;;;;5014724;28;20041;-76
2021/05/28 03:14:42;;;;;;;4.05;2.97;;;11.60;1.00;;;;;;5014705;28;20109;-78
2021/05/28 03:17:08;;;;;;;3.75;2.83;;;11.60;1.00;;;;;;5013837;28;20022;-78
2021/05/28 03:19:42;;;;;;;3.30;2.88;;;11.60;1.00;;;;;;5014746;28;20033;-78
2021/05/28 03:24:39;;;;;;;2.80;2.58;;;11.60;1.00;;;;;;5013789;28;20037;-77
2021/05/28 03:27:05;;;;;;;5.70;3.13;;;11.60;1.00;;;;;;5013322;28;20021;-77
2021/05/28 03:29:30;;;;;;;4.13;2.85;;;11.60;1.00;;;;;;5014903;28;20033;-77
2021/05/28 03:31:56;;;;;;;2.80;2.60;;;11.60;1.00;;;;;;5014535;28;20030;-78
2021/05/28 03:34:21;;;;;;;5.70;2.38;;;11.50;1.00;;;;;;5014390;28;20025;-77
2021/05/28 03:36:48;;;;;;;5.97;2.78;;;11.50;1.00;;;;;;5014586;28;20025;-77
2021/05/28 03:39:14;;;;;;;3.13;2.75;;;11.40;1.00;;;;;;5014363;28;20503;-78
2021/05/28 03:41:39;;;;;;;4.00;2.78;;;11.40;1.00;;;;;;5014109;28;20116;-77
2021/05/28 03:44:05;;;;;;;3.63;2.55;;;11.30;1.00;;;;;;5012821;28;20486;-77
2021/05/28 03:46:31;;;;;;;4.95;3.30;;;11.20;1.00;;;;;;5014119;28;20077;-78
2021/05/28 03:48:57;;;;;;;3.33;2.80;;;11.20;1.00;;;;;;5012605;28;20076;-78
2021/05/28 03:51:22;;;;;;;3.85;2.90;;;11.10;1.00;;;;;;5013701;28;20040;-79
2021/05/28 03:53:49;;;;;;;4.13;2.90;;;11.00;1.00;;;;;;5012345;28;20029;-77
2021/05/28 03:56:15;;;;;;;5.53;3.33;;;11.00;1.00;;;;;;5013817;28;20018;-77
2021/05/28 03:58:41;;;;;;;3.50;2.72;;;10.90;1.00;;;;;;5013821;28;20029;-78
2021/05/28 04:01:06;;;;;;;4.25;3.50;;;10.90;1.00;;;;;;5013872;28;20108;-78
2021/05/28 04:03:32;;;;;;;8.27;4.35;;;10.90;1.00;;;;;;5013504;28;20113;-76
2021/05/28 04:05:57;;;;;;;7.72;3.58;;;10.80;1.00;;;;;;5013467;28;20026;-78
2021/05/28 04:08:23;;;;;;;4.60;3.72;;;10.80;1.00;;;;;;5003605;28;20117;-77
2021/05/28 04:10:49;;;;;;;4.38;3.53;;;10.80;1.00;;;;;;5008410;28;20100;-76
2021/05/28 04:13:14;;;;;;;6.97;4.32;;;10.80;1.00;;;;;;5013224;28;20471;-77
2021/05/28 04:15:40;;;;;;;5.03;4.60;;;10.80;1.00;;;;;;4999945;28;20030;-80
2021/05/28 04:18:06;;;;;;;5.30;4.45;;;10.80;1.00;;;;;;5011790;28;20483;-80
2021/05/28 04:20:31;;;;;;;4.47;3.75;;;10.90;1.00;;;;;;5014631;28;20037;-81
2021/05/28 04:22:58;;;;;;;4.97;4.35;;;10.90;1.00;;;;;;5014401;28;20025;-81
2021/05/28 04:25:23;;;;;;;8.45;4.80;;;10.90;1.00;;;;;;5013895;28;20021;-79
2021/05/28 04:27:49;;;;;;;5.85;4.45;;;11.00;1.00;;;;;;5008366;28;20318;-84
2021/05/28 04:30:21;;;;;;;6.88;4.80;;;11.00;1.00;;;;;;5010768;28;20030;-83
2021/05/28 04:32:47;;;;;;;6.75;4.90;;;11.10;1.00;;;;;;5016640;28;20021;-79
2021/05/28 04:35:13;;;;;;;7.60;5.22;;;11.20;1.00;;;;;;5015654;28;20030;-82
2021/05/28 04:37:38;;;;;;;7.95;5.05;;;11.20;1.00;;;;;;5017040;28;20105;-78
2021/05/28 04:40:04;;;;;;;6.18;5.03;;;11.30;1.00;;;;;;5013541;28;20026;-80
2021/05/28 04:42:30;;;;;;;5.60;5.10;;;11.40;1.00;;;;;;5013072;28;20045;-80
2021/05/28 04:44:55;;;;;;;7.25;5.30;;;11.40;1.00;;;;;;5013268;28;20033;-80
2021/05/28 04:47:21;;;;;;;6.97;5.43;;;11.40;1.00;;;;;;5014387;28;20014;-79
2021/05/28 04:49:47;;;;;;;7.90;6.00;;;11.50;1.00;;;;;;5012244;28;20026;-80
2021/05/28 04:52:12;;;;;;;5.63;4.85;;;11.60;1.00;;;;;;5013996;28;20030;-79
2021/05/28 04:54:38;;;;;;;10.60;5.40;;;11.70;1.00;;;;;;5012135;28;20038;-79
2021/05/28 04:57:03;;;;;;;8.43;5.20;;;11.80;1.00;;;;;;5012891;28;20124;-80
2021/05/28 04:59:29;;;;;;;7.25;5.18;;;11.70;1.00;;;;;;5013824;28;20033;-80
2021/05/28 05:01:54;;;;;;;8.82;6.07;;;11.80;1.00;;;;;;5014086;28;20368;-80
2021/05/28 05:04:20;;;;;;;6.25;4.90;;;11.90;1.00;;;;;;5014878;28;20069;-80
2021/05/28 05:06:45;;;;;;;5.47;4.97;;;12.00;1.00;;;;;;5013933;28;20137;-79
2021/05/28 05:09:11;;;;;;;10.38;5.22;;;12.00;1.00;;;;;;5013472;28;20030;-79
2021/05/28 05:11:36;;;;;;;5.97;5.38;;;12.10;1.00;;;;;;5012488;28;20113;-79
2021/05/28 05:14:02;;;;;;;8.43;5.05;;;12.10;1.00;;;;;;5014003;28;20265;-81
2021/05/28 05:16:28;;;;;;;8.13;5.97;;;12.00;1.00;;;;;;5013488;28;20140;-79
2021/05/28 05:18:53;;;;;;;7.38;5.05;;;12.00;1.00;;;;;;5013477;28;20474;-80
2021/05/28 05:21:19;;;;;;;5.10;4.60;;;12.20;1.00;;;;;;5013557;28;20398;-80
2021/05/28 05:23:45;;;;;;;9.50;5.50;;;12.30;99.90;;;;;;5014049;28;20065;-80
2021/05/28 05:26:10;;;;;;;5.20;4.65;;;12.20;1.00;;;;;;5013596;28;20033;-80
2021/05/28 05:28:36;;;;;;;6.85;5.50;;;12.30;99.90;;;;;;5014114;28;20374;-80
2021/05/28 05:31:03;;;;;;;7.38;5.43;;;12.50;99.90;;;;;;5013724;28;20030;-79
2021/05/28 05:33:29;;;;;;;7.20;5.50;;;12.40;99.90;;;;;;5013705;28;20030;-80
2021/05/28 05:35:54;;;;;;;7.05;5.47;;;12.50;99.90;;;;;;5013676;28;20385;-79
2021/05/28 05:38:20;;;;;;;9.63;5.47;;;12.40;99.90;;;;;;5012818;28;20022;-80
2021/05/28 05:40:46;;;;;;;8.68;5.90;;;12.60;99.90;;;;;;5026334;28;20010;-79
2021/05/28 05:43:11;;;;;;;9.00;5.50;;;12.40;99.90;;;;;;5033419;28;20097;-79
2021/05/28 05:45:37;;;;;;;8.98;5.18;;;12.50;99.90;;;;;;5032773;28;20022;-79
2021/05/28 05:48:03;;;;;;;6.47;5.88;;;12.90;99.90;;;;;;5036840;28;20090;-79
2021/05/28 05:50:29;;;;;;;8.57;5.93;;;13.20;99.90;;;;;;5043383;28;20022;-81
2021/05/28 05:52:55;;;;;;;8.60;5.90;;;13.30;99.90;;;;;;5042912;28;20021;-80
2021/05/28 05:55:22;;;;;;;8.15;5.85;;;13.00;99.90;;;;;;5041806;28;20030;-80
2021/05/28 05:57:48;;;;;;;6.20;5.63;;;12.90;99.90;;;;;;5021677;28;20053;-79
2021/05/28 06:00:14;;;;;;;6.20;5.63;;;12.80;99.90;;;;;;5018360;28;20351;-79
2021/05/28 06:02:39;;;;;;;8.35;6.03;;;12.80;99.90;;;;;;5020148;28;20097;-79
2021/05/28 06:05:06;;;;;;;8.18;6.82;;;12.90;99.90;;;;;;5019679;28;20026;-81
2021/05/28 06:07:31;;;;;;;9.25;5.78;;;12.70;99.90;;;;;;5020208;28;20022;-79
2021/05/28 06:09:57;;;;;;;6.57;5.88;;;12.90;99.90;;;;;;5020077;28;20028;-79
2021/05/28 06:12:23;;;;;;;9.57;6.63;;;13.50;99.90;;;;;;5019756;28;20026;-79
2021/05/28 06:14:48;;;;;;;7.18;6.22;;;13.80;99.90;;;;;;5019902;28;20068;-80
2021/05/28 06:17:14;;;;;;;6.63;5.68;;;13.60;99.90;;;;;;5018270;28;20501;-80
2021/05/28 06:19:40;;;;;;;7.88;5.75;;;13.50;99.90;;;;;;5018543;28;20467;-80
2021/05/28 06:22:06;;;;;;;8.65;5.85;;;13.60;99.90;;;;;;5019016;28;20060;-80
2021/05/28 06:24:32;;;;;;;11.38;6.20;;;13.50;99.90;;;;;;5018884;28;20092;-80
2021/05/28 06:26:57;;;;;;;11.52;6.57;;;13.30;99.90;;;;;;5017207;28;20474;-80
2021/05/28 06:29:23;;;;;;;8.10;5.90;;;13.30;99.90;;;;;;5020219;28;20022;-80
2021/05/28 06:31:49;;;;;;;6.50;5.90;;;13.60;99.90;;;;;;5018925;28;20138;-80
2021/05/28 06:34:14;;;;;;;8.60;6.22;;;14.00;99.90;;;;;;5018210;28;20028;-80
2021/05/28 06:36:40;;;;;;;8.23;6.78;;;14.20;99.90;;;;;;5019372;28;20022;-81
2021/05/28 06:39:07;;;;;;;8.45;6.97;;;14.10;99.90;;;;;;5019860;28;20030;-82
2021/05/28 06:41:33;;;;;;;9.52;7.20;;;14.00;99.90;;;;;;5019767;28;20021;-80
2021/05/28 06:43:58;;;;;;;8.48;6.43;;;14.10;99.90;;;;;;5020339;28;20045;-80
2021/05/28 06:46:24;;;;;;;8.73;6.35;;;13.80;99.90;;;;;;5019970;28;20026;-81
2021/05/28 06:48:52;;;;;;;7.07;6.10;;;14.00;99.90;;;;;;5019875;28;20406;-81
2021/05/28 06:51:17;;;;;;;7.75;6.88;;;13.90;99.90;;;;;;5018180;28;20088;-79
2021/05/28 06:53:43;;;;;;;8.85;6.60;;;13.90;99.90;;;;;;5019617;28;20059;-79
2021/05/28 06:56:08;;;;;;;7.15;6.07;;;14.10;99.90;;;;;;5019932;28;20037;-80
2021/05/28 06:58:34;;;;;;;11.25;5.80;;;14.50;99.90;;;;;;5019818;28;20437;-80
2021/05/28 07:01:00;;;;;;;8.07;6.15;;;14.90;99.90;;;;;;5015359;28;20025;-80
2021/05/28 07:03:25;;;;;;;6.75;6.05;;;15.30;99.90;;;;;;5016044;28;20092;-81
2021/05/28 07:05:52;;;;;;;8.52;6.55;;;15.40;99.90;;;;;;5015492;28;20090;-79
2021/05/28 07:08:18;;;;;;;7.22;6.30;;;14.90;99.90;;;;;;5016479;28;20061;-80
2021/05/28 07:10:43;;;;;;;8.52;6.10;;;14.70;99.90;;;;;;5016297;28;20042;-78
2021/05/28 07:13:09;;;;;;;6.20;5.47;;;15.50;99.90;;;;;;5014983;28;20108;-80
2021/05/28 07:15:37;;;;;;;7.72;5.57;;;15.50;99.90;;;;;;5016163;28;20330;-80
2021/05/28 07:18:03;;;;;;;6.95;5.13;;;15.50;99.90;;;;;;5015257;28;20544;-79
2021/05/28 07:20:29;;;;;;;6.00;5.40;;;15.80;99.90;;;;;;5014575;28;20034;-80
2021/05/28 07:22:54;;;;;;;6.75;5.97;;;15.90;84.20;;;;;;5015059;28;20076;-80
2021/05/28 07:25:20;;;;;;;7.47;5.82;;;15.10;99.90;;;;;;5015778;28;20038;-79
2021/05/28 07:27:46;;;;;;;7.95;5.47;;;15.60;98.00;;;;;;5015689;28;20053;-79
2021/05/28 07:30:12;;;;;;;6.13;5.53;;;15.50;99.90;;;;;;5016025;28;20026;-80
2021/05/28 07:32:39;;;;;;;7.28;6.03;;;16.20;50.70;;;;;;5014681;28;20049;-79
2021/05/28 07:35:06;;;;;;;6.65;5.30;;;15.80;64.00;;;;;;5014277;28;20026;-79
2021/05/28 07:37:31;;;;;;;7.20;5.43;;;16.00;88.30;;;;;;5014434;28;20022;-79
2021/05/28 07:39:57;;;;;;;6.70;5.40;;;16.40;1.00;;;;;;5014642;28;20022;-81
2021/05/28 07:42:23;;;;;;;6.32;5.72;;;16.70;1.00;;;;;;5016122;28;20073;-79
2021/05/28 07:44:48;;;;;;;6.88;5.45;;;16.80;1.00;;;;;;5015753;28;20033;-80
2021/05/28 07:47:15;;;;;;;6.40;4.80;;;16.40;1.00;;;;;;5014544;28;20025;-80
2021/05/28 07:49:40;;;;;;;7.35;4.90;;;16.70;1.00;;;;;;5013804;28;20029;-80
2021/05/28 07:52:06;;;;;;;6.05;4.13;;;16.90;1.00;;;;;;5014108;28;20025;-79
2021/05/28 07:54:32;;;;;;;6.68;4.82;;;16.50;1.00;;;;;;5013978;28;20046;-80
2021/05/28 07:56:58;;;;;;;7.10;5.07;;;16.40;1.00;;;;;;5015310;28;20026;-80
2021/05/28 07:59:23;;;;;;;6.15;4.63;;;16.90;1.00;;;;;;5029509;23;20073;-77
2021/05/28 08:01:49;;;;;;;7.22;4.57;;;16.50;99.90;;;;;;5017459;28;20544;-77
2021/05/28 08:04:15;;;;;;;7.85;5.40;;;15.80;1.00;;;;;;5018137;28;20033;-77
2021/05/28 08:06:40;;;;;;;8.10;4.93;;;16.00;1.00;;;;;;5017632;28;20029;-76
2021/05/28 08:09:06;;;;;;;6.10;5.00;;;15.90;1.00;;;;;;5012830;28;20121;-76
2021/05/28 08:11:32;;;;;;;7.13;5.50;;;15.50;1.00;;;;;;4998437;28;20034;-75
2021/05/28 08:14:02;;;;;;;5.85;4.55;;;15.80;1.00;;;;;;4997290;28;20062;-76
2021/05/28 08:16:28;;;;;;;5.30;4.68;;;15.70;1.00;;;;;;4997711;28;20514;-75
2021/05/28 08:18:54;;;;;;;8.00;4.65;;;15.70;1.00;;;;;;4997227;28;20030;-76
2021/05/28 08:21:19;;;;;;;5.53;4.70;;;15.80;1.00;;;;;;4997006;28;20033;-76
2021/05/28 08:23:45;;;;;;;8.52;5.18;;;16.50;99.90;;;;;;4997467;28;20018;-75
2021/05/28 08:26:11;;;;;;;7.55;5.43;;;16.70;60.20;;;;;;5012906;28;20026;-77
2021/05/28 08:28:37;;;;;;;5.72;4.07;;;16.40;1.30;;;;;;4997744;28;20030;-75
2021/05/28 08:31:04;;;;;;;5.53;3.88;;;16.60;99.90;;;;;;4997677;28;20037;-75
2021/05/28 08:33:30;;;;;;;8.20;4.03;;;16.90;99.90;;;;;;5000427;28;20109;-75
2021/05/28 08:35:56;;;;;;;5.32;3.80;;;17.00;6.70;;;;;;4995977;28;20042;-76
2021/05/28 08:38:21;;;;;;;4.28;3.83;;;16.80;1.00;;;;;;4997688;28;20090;-76
2021/05/28 08:40:47;;;;;;;7.05;4.38;;;17.10;1.00;;;;;;4997201;28;20026;-76
2021/05/28 08:43:13;;;;;;;7.03;4.50;;;16.90;99.90;;;;;;4997069;28;20042;-75
2021/05/28 08:45:41;;;;;;;8.23;4.35;;;16.20;1.00;;;;;;4996709;28;20068;-74
2021/05/28 08:48:09;;;;;;;4.55;3.40;;;16.00;99.90;;;;;;4997469;28;20511;-75
2021/05/28 08:50:36;;;;;;;5.32;3.63;;;16.00;1.00;;;;;;5012957;28;20026;-75
2021/05/28 08:53:03;;;;;;;5.93;3.55;;;16.30;1.00;;;;;;4996865;28;20023;-76
2021/05/28 08:55:30;;;;;;;6.28;3.38;;;16.90;99.90;;;;;;4996955;28;20023;-75
2021/05/28 08:57:55;;;;;;;4.40;3.95;;;17.30;99.90;;;;;;5010307;28;20133;-73
2021/05/28 09:00:24;;;;;;;5.28;3.72;;;17.40;1.00;;;;;;5015668;28;20094;-75
2021/05/28 09:02:49;;;;;;;4.38;3.92;;;17.80;1.00;;;;;;5006498;28;20140;-75
2021/05/28 09:05:23;;;;;;;5.05;4.25;;;18.00;41.60;;;;;;4996039;28;20503;-76
2021/05/28 09:07:58;;;;;;;4.18;3.58;;;17.60;99.90;;;;;;4996185;28;20026;-76
2021/05/28 09:10:27;;;;;;;6.43;3.92;;;17.60;99.90;;;;;;4995887;28;20041;-77
2021/05/28 09:12:53;;;;;;;4.97;4.40;;;17.40;99.90;;;;;;4996244;28;20041;-76
2021/05/28 09:15:21;;;;;;;6.75;5.35;;;17.30;99.90;;;;;;4996048;28;20458;-75
2021/05/28 09:17:51;;;;;;;9.02;5.03;;;17.30;99.90;;;;;;4995352;28;20027;-75
2021/05/28 09:20:20;;;;;;;4.20;3.83;;;17.20;10.20;;;;;;4996854;28;20101;-73
2021/05/28 09:22:46;;;;;;;7.72;4.50;;;17.10;99.90;;;;;;4995473;28;20105;-75
2021/05/28 09:25:13;;;;;;;7.97;4.15;;;17.40;99.90;;;;;;4994491;28;20031;-77
2021/05/28 09:27:40;;;;;;;6.10;3.65;;;17.30;99.90;;;;;;4997836;28;21399;-75
2021/05/28 09:30:11;;;;;;;4.85;3.75;;;17.30;99.90;;;;;;4996356;28;20026;-76
2021/05/28 09:32:39;;;;;;;4.18;3.35;;;17.30;80.90;;;;;;4996234;28;20037;-74
2021/05/28 09:35:09;;;;;;;7.03;3.85;;;17.20;1.00;;;;;;4995902;28;20049;-75
2021/05/28 09:37:43;;;;;;;4.57;3.72;;;16.90;99.90;;;;;;4993885;28;20025;-74
2021/05/28 09:40:17;;;;;;;4.80;4.40;;;16.90;99.90;;;;;;4995584;28;20019;-73
2021/05/28 09:42:57;;;;;;;6.63;3.97;;;16.60;99.90;;;;;;4995621;28;20325;-75
2021/05/28 09:45:36;;;;;;;6.47;4.30;;;17.00;99.90;;;;;;4996234;28;20038;-76
2021/05/28 09:48:04;;;;;;;4.35;3.40;;;17.00;99.90;;;;;;5011836;28;20560;-77
2021/05/28 09:50:34;;;;;;;4.55;3.75;;;16.70;99.90;;;;;;5000955;28;20129;-77
2021/05/28 09:53:04;;;;;;;4.73;3.83;;;16.50;99.90;;;;;;5000017;28;20054;-77
2021/05/28 09:55:32;;;;;;;5.90;4.60;;;16.40;1.00;;;;;;4995382;28;20018;-76
2021/05/28 09:57:58;;;;;;;4.93;3.33;;;16.40;99.90;;;;;;4993065;28;20042;-73
2021/05/28 10:00:36;;;;;;;4.22;3.47;;;16.50;1.00;;;;;;4980306;28;20031;-72
2021/05/28 10:03:23;;;;;;;4.55;3.15;;;16.60;99.90;;;;;;4989232;28;20030;-71
2021/05/28 10:05:54;;;;;;;4.00;3.60;;;16.70;1.00;;;;;;4992655;28;20490;-72
2021/05/28 10:08:22;;;;;;;5.78;3.78;;;16.70;1.00;;;;;;4995759;28;20497;-73
2021/05/28 10:10:49;;;;;;;4.65;3.63;;;16.80;1.00;;;;;;4995285;28;20041;-71
2021/05/28 10:13:17;;;;;;;6.32;4.20;;;16.90;1.00;;;;;;4994104;28;20076;-71
2021/05/28 10:15:44;;;;;;;4.63;3.55;;;17.00;1.00;;;;;;4993144;28;20041;-72
2021/05/28 10:18:10;;;;;;;6.18;3.47;;;17.30;99.90;;;;;;4994032;28;20018;-70
2021/05/28 10:20:38;;;;;;;3.90;3.40;;;17.60;99.90;;;;;;4993358;28;20061;-72
2021/05/28 10:23:05;;;;;;;6.03;3.65;;;17.80;63.50;;;;;;4994023;28;20026;-73
2021/05/28 10:25:31;;;;;;;4.03;3.45;;;18.00;1.00;;;;;;4991920;28;20031;-71
2021/05/28 10:28:02;;;;;;;5.32;2.85;;;17.80;67.20;;;;;;4992523;28;20026;-72
2021/05/28 10:30:37;;;;;;;4.20;3.60;;;17.50;99.90;;;;;;4993572;28;20022;-72
2021/05/28 10:33:23;;;;;;;4.70;4.28;;;17.70;99.90;;;;;;4994334;28;20023;-72
2021/05/28 10:35:51;;;;;;;3.53;3.22;;;17.20;99.90;;;;;;4997134;28;20101;-71
2021/05/28 10:38:29;;;;;;;5.03;2.92;;;16.20;1.00;;;;;;4999347;28;20097;-71
2021/05/28 10:41:07;;;;;;;4.05;2.88;;;16.20;99.90;;;;;;4996999;28;20026;-72
2021/05/28 10:43:38;;;;;;;2.80;2.60;;;16.80;99.90;;;;;;4995874;28;20034;-72
2021/05/28 10:46:05;;;;;;;;;;;17.30;90.20;;;;;;4998067;28;20399;-73
2021/05/28 10:48:40;;;;;;;3.92;3.05;;;17.60;11.90;;;;;;4996914;28;20346;-71
2021/05/28 10:51:13;;;;;;;4.18;2.40;;;17.80;99.90;;;;;;4997253;28;20037;-72
2021/05/28 10:54:02;;;;;;;2.65;2.45;;;18.80;99.90;;;;;;4996616;28;20033;-71
2021/05/28 10:56:43;;;;;;;3.60;2.70;;;18.60;62.40;;;;;;4996069;28;20030;-71
2021/05/28 10:59:16;;;;;;;2.15;1.65;;;19.30;1.00;;;;;;4996814;28;20030;-71
2021/05/28 11:01:57;;;;;;;3.15;1.83;;;18.80;99.90;;;;;;4997316;28;20513;-71
2021/05/28 11:04:31;;;;;;;4.22;2.08;;;18.00;1.00;;;;;;4996691;28;20030;-71
2021/05/28 11:07:00;;;;;;;4.20;2.67;;;18.00;1.00;;;;;;4997953;28;20059;-72
2021/05/28 11:09:40;;;;;;;3.22;1.63;;;18.20;1.00;;;;;;4997176;28;20383;-72
2021/05/28 11:12:07;;;;;;;3.45;2.65;;;18.60;1.00;;;;;;4997451;28;20504;-72
2021/05/28 11:14:36;;;;;;;2.20;2.00;;;18.00;99.90;;;;;;4982223;28;20055;-71
2021/05/28 11:17:06;;;;;;;2.63;2.42;;;17.30;1.00;;;;;;5004622;28;20027;-72
2021/05/28 11:19:41;;;;;;;3.20;2.30;;;17.40;1.00;;;;;;4991011;28;20030;-73
2021/05/28 11:22:11;;;;;;;4.57;2.20;;;18.00;1.00;;;;;;4982343;28;20399;-72
2021/05/28 11:24:47;;;;;;;2.33;1.90;;;18.60;1.00;;;;;;4976892;28;20086;-71
2021/05/28 11:27:23;;;;;;;3.88;1.80;;;19.20;99.90;;;;;;4977588;28;20060;-71
2021/05/28 11:30:03;;;;;;;2.47;2.22;;;19.50;99.90;;;;;;4977926;28;20042;-72
2021/05/28 11:32:45;;;;;;;5.47;1.98;;;18.90;99.90;;;;;;4977978;28;20023;-72
2021/05/28 11:35:10;;;;;;;;;;;18.80;99.90;;;;;;4981075;28;20026;-71
2021/05/28 11:37:37;;;;;;;4.65;1.88;;;19.00;99.90;;;;;;4978146;28;20362;-72
2021/05/28 11:40:20;;;;;;;2.55;2.35;;;18.80;99.90;;;;;;4977699;28;20537;-72
2021/05/28 11:42:46;;;;;;;2.78;2.25;;;18.60;99.90;;;;;;4978202;28;20129;-72
2021/05/28 11:45:13;;;;;;;4.68;1.80;;;18.30;99.90;;;;;;4978238;28;20026;-70
2021/05/28 11:47:39;;;;;;;3.03;2.05;;;18.30;99.90;;;;;;4977791;28;20509;-72
2021/05/28 11:50:14;;;;;;;2.30;2.00;;;17.70;99.90;;;;;;4977289;28;20026;-73
2021/05/28 11:52:40;;;;;;;5.53;2.20;;;17.60;1.00;;;;;;4977066;28;20027;-70
2021/05/28 11:55:11;;;;;;;2.75;2.45;;;18.00;1.00;;;;;;4976913;28;20491;-70
2021/05/28 11:57:38;;;;;;;3.42;2.42;;;18.00;1.00;;;;;;4988853;28;20022;-71
2021/05/28 12:00:09;;;;;;;2.88;2.50;;;18.30;1.00;;;;;;4989928;28;20034;-74
2021/05/28 12:02:38;;;;;;;4.55;2.38;;;18.70;1.00;;;;;;4992183;28;20054;-71
2021/05/28 12:05:05;;;;;;;2.85;1.73;;;19.50;99.90;;;;;;4992263;28;20455;-71
2021/05/28 12:07:31;;;;;;;2.50;1.95;;;19.90;99.90;;;;;;4988974;28;20031;-72
2021/05/28 12:10:02;;;;;;;1.65;1.55;;;19.70;99.90;;;;;;4983213;28;20038;-73
2021/05/28 12:12:27;;;;;;;2.20;1.52;;;19.50;99.90;;;;;;4989451;28;20030;-70
2021/05/28 12:15:09;;;;;;;2.67;1.20;;;19.30;99.90;;;;;;4993164;28;20526;-71
2021/05/28 12:17:34;;;;;;;1.83;1.40;;;19.50;99.90;;;;;;4988039;28;20505;-70
2021/05/28 12:20:22;;;;;;;3.00;2.40;;;19.50;99.90;;;;;;4988566;28;20031;-71
2021/05/28 12:22:59;;;;;;;2.33;1.83;;;19.20;99.90;;;;;;4989582;28;20034;-73
2021/05/28 12:25:25;;;;;;;1.52;1.42;;;18.80;99.90;;;;;;4989301;28;20415;-72
2021/05/28 12:27:51;;;;;;;3.15;1.52;;;18.60;99.90;;;;;;4982663;28;20034;-71
2021/05/28 12:30:23;;;;;;;1.88;1.77;;;19.20;99.90;;;;;;4995037;28;20018;-72
2021/05/28 12:32:49;;;;;;;5.43;2.10;;;18.00;99.90;;;;;;4999957;28;20543;-70
2021/05/28 12:35:16;;;;;;;2.35;2.03;;;18.10;99.90;;;;;;5001975;28;20085;-73
2021/05/28 12:38:04;;;;;;;1.80;1.70;;;18.80;99.90;;;;;;5000259;28;20037;-72
2021/05/28 12:40:30;;;;;;;2.53;1.98;;;18.70;99.90;;;;;;5000520;28;20415;-71
2021/05/28 12:42:59;;;;;;;1.67;1.45;;;18.80;99.90;;;;;;5001322;28;20081;-71
2021/05/28 12:45:38;;;;;;;2.67;1.60;;;19.10;99.90;;;;;;5002901;28;20037;-73
2021/05/28 12:48:04;;;;;;;3.60;1.58;;;19.30;99.90;;;;;;5003985;28;20038;-71
2021/05/28 12:50:33;;;;;;;1.83;1.10;;;19.50;99.90;;;;;;5000147;28;20077;-72
2021/05/28 12:53:09;;;;;;;1.30;1.17;;;19.50;99.90;;;;;;5000506;28;20050;-72
2021/05/28 12:55:36;;;;;;;2.42;1.70;;;19.50;99.90;;;;;;4994937;28;20479;-71
2021/05/28 12:58:02;;;;;;;2.97;1.50;;;19.50;99.90;;;;;;4994755;28;20570;-71